Terminal Aerodrome Forecast
Issued by NWS Burlington, VT

Home | Current Version | Previous Version | Text Only | Print | Product List | Glossary On
Versions: 1 2 3 4 5 6 7 8 9 10 11 12 13 14 15 16 17 18
624
FTUS41 KBTV 130537
TAFBTV
TAF
KBTV 130537Z 1306/1406 19012G20KT P6SM VCSH OVC080
     FM130800 23013KT P6SM VCSH OVC030
     FM131000 28011KT P6SM OVC020
     FM131200 31013KT P6SM OVC035=

USA.gov is the U.S. government's official web portal to all federal, state and local government web resources and services.